sensor_id;sensor_type;location;lat;lon;timestamp;pressure;altitude;pressure_sealevel;temperature;humidity
55460;BME280;41326;45.302;-122.946;2023-02-12T00:00:49;101752.22;;;18.45;53.66
55460;BME280;41326;45.302;-122.946;2023-02-12T00:03:20;101754.36;;;18.47;53.54
55460;BME280;41326;45.302;-122.946;2023-02-12T00:05:50;101758.57;;;18.48;53.64
55460;BME280;41326;45.302;-122.946;2023-02-12T00:08:19;101758.63;;;18.47;53.67
55460;BME280;41326;45.302;-122.946;2023-02-12T00:10:50;101757.92;;;18.44;53.83
55460;BME280;41326;45.302;-122.946;2023-02-12T00:13:21;101759.88;;;18.46;53.86
55460;BME280;41326;45.302;-122.946;2023-02-12T00:15:51;101759.17;;;18.45;53.95
55460;BME280;41326;45.302;-122.946;2023-02-12T00:18:21;101758.29;;;18.44;53.97
55460;BME280;41326;45.302;-122.946;2023-02-12T00:20:51;101763.31;;;18.49;53.72
55460;BME280;41326;45.302;-122.946;2023-02-12T00:23:22;101763.38;;;18.46;53.63
55460;BME280;41326;45.302;-122.946;2023-02-12T00:25:51;101768.48;;;18.46;53.61
55460;BME280;41326;45.302;-122.946;2023-02-12T00:28:22;101770.48;;;18.42;53.90
55460;BME280;41326;45.302;-122.946;2023-02-12T00:30:52;101771.84;;;18.50;53.68
55460;BME280;41326;45.302;-122.946;2023-02-12T00:33:23;101770.28;;;18.46;53.86
55460;BME280;41326;45.302;-122.946;2023-02-12T00:35:57;101773.21;;;18.43;54.06
55460;BME280;41326;45.302;-122.946;2023-02-12T00:38:23;101772.84;;;18.43;54.11
55460;BME280;41326;45.302;-122.946;2023-02-12T00:40:54;101769.57;;;18.39;54.23
55460;BME280;41326;45.302;-122.946;2023-02-12T00:43:24;101767.22;;;18.44;54.21
55460;BME280;41326;45.302;-122.946;2023-02-12T00:45:54;101762.00;;;18.46;54.17
55460;BME280;41326;45.302;-122.946;2023-02-12T00:48:25;101763.13;;;18.48;54.23
55460;BME280;41326;45.302;-122.946;2023-02-12T00:50:55;101757.49;;;18.51;54.15
55460;BME280;41326;45.302;-122.946;2023-02-12T00:53:25;101754.78;;;18.48;54.36
55460;BME280;41326;45.302;-122.946;2023-02-12T00:55:55;101750.40;;;18.51;54.31
55460;BME280;41326;45.302;-122.946;2023-02-12T00:58:26;101750.61;;;18.49;54.31
55460;BME280;41326;45.302;-122.946;2023-02-12T01:00:56;101747.11;;;18.49;54.26
55460;BME280;41326;45.302;-122.946;2023-02-12T01:03:27;101747.19;;;18.49;54.18
55460;BME280;41326;45.302;-122.946;2023-02-12T01:05:57;101747.06;;;18.52;54.22
55460;BME280;41326;45.302;-122.946;2023-02-12T01:08:28;101745.50;;;18.52;54.22
55460;BME280;41326;45.302;-122.946;2023-02-12T01:11:02;101750.00;;;18.51;54.20
55460;BME280;41326;45.302;-122.946;2023-02-12T01:13:29;101754.18;;;18.52;54.32
55460;BME280;41326;45.302;-122.946;2023-02-12T01:16:04;101758.01;;;18.52;54.34
55460;BME280;41326;45.302;-122.946;2023-02-12T01:18:28;101760.53;;;18.51;54.32
55460;BME280;41326;45.302;-122.946;2023-02-12T01:20:59;101763.85;;;18.52;54.18
55460;BME280;41326;45.302;-122.946;2023-02-12T01:23:29;101762.87;;;18.50;54.10
55460;BME280;41326;45.302;-122.946;2023-02-12T01:25:59;101762.39;;;18.49;54.22
55460;BME280;41326;45.302;-122.946;2023-02-12T01:28:29;101759.96;;;18.49;54.33
55460;BME280;41326;45.302;-122.946;2023-02-12T01:30:59;101759.27;;;18.48;54.49
55460;BME280;41326;45.302;-122.946;2023-02-12T01:33:30;101754.40;;;18.49;54.31
55460;BME280;41326;45.302;-122.946;2023-02-12T01:36:02;101757.71;;;18.45;54.51
55460;BME280;41326;45.302;-122.946;2023-02-12T01:38:30;101761.49;;;18.45;54.54
55460;BME280;41326;45.302;-122.946;2023-02-12T01:41:06;101760.53;;;18.45;54.50
55460;BME280;41326;45.302;-122.946;2023-02-12T01:43:32;101762.82;;;18.45;54.31
55460;BME280;41326;45.302;-122.946;2023-02-12T01:46:04;101763.74;;;18.55;53.98
55460;BME280;41326;45.302;-122.946;2023-02-12T01:48:34;101764.85;;;18.62;53.71
55460;BME280;41326;45.302;-122.946;2023-02-12T01:51:05;101767.57;;;18.65;53.77
55460;BME280;41326;45.302;-122.946;2023-02-12T01:53:37;101769.39;;;18.60;54.01
55460;BME280;41326;45.302;-122.946;2023-02-12T01:56:06;101765.80;;;18.57;54.30
55460;BME280;41326;45.302;-122.946;2023-02-12T01:58:36;101768.70;;;18.59;54.29
55460;BME280;41326;45.302;-122.946;2023-02-12T02:01:06;101774.26;;;18.59;54.22
55460;BME280;41326;45.302;-122.946;2023-02-12T02:03:35;101772.51;;;18.57;54.16
55460;BME280;41326;45.302;-122.946;2023-02-12T02:06:07;101779.03;;;18.56;54.23
55460;BME280;41326;45.302;-122.946;2023-02-12T02:08:36;101777.31;;;18.55;54.42
55460;BME280;41326;45.302;-122.946;2023-02-12T02:11:05;101779.87;;;18.51;54.39
55460;BME280;41326;45.302;-122.946;2023-02-12T02:13:35;101784.23;;;18.62;53.88
55460;BME280;41326;45.302;-122.946;2023-02-12T02:16:11;101788.87;;;18.71;53.60
55460;BME280;41326;45.302;-122.946;2023-02-12T02:18:42;101792.17;;;18.72;53.60
55460;BME280;41326;45.302;-122.946;2023-02-12T02:23:47;101793.98;;;18.67;53.65
55460;BME280;41326;45.302;-122.946;2023-02-12T02:28:51;101797.78;;;18.70;53.60
55460;BME280;41326;45.302;-122.946;2023-02-12T02:31:11;101795.31;;;18.64;53.64
55460;BME280;41326;45.302;-122.946;2023-02-12T02:33:44;101798.07;;;18.74;53.43
55460;BME280;41326;45.302;-122.946;2023-02-12T02:36:18;101797.99;;;18.79;53.24
55460;BME280;41326;45.302;-122.946;2023-02-12T02:38:43;101794.13;;;18.82;53.19
55460;BME280;41326;45.302;-122.946;2023-02-12T02:41:13;101792.88;;;18.77;53.32
55460;BME280;41326;45.302;-122.946;2023-02-12T02:43:42;101788.47;;;18.74;53.28
55460;BME280;41326;45.302;-122.946;2023-02-12T02:46:13;101787.63;;;18.72;53.34
55460;BME280;41326;45.302;-122.946;2023-02-12T02:48:43;101786.89;;;18.68;53.37
55460;BME280;41326;45.302;-122.946;2023-02-12T02:51:13;101785.81;;;18.77;52.98
55460;BME280;41326;45.302;-122.946;2023-02-12T02:53:45;101781.34;;;18.91;52.81
55460;BME280;41326;45.302;-122.946;2023-02-12T02:56:14;101785.60;;;18.88;52.68
55460;BME280;41326;45.302;-122.946;2023-02-12T02:58:46;101785.28;;;18.88;52.61
55460;BME280;41326;45.302;-122.946;2023-02-12T03:01:16;101784.04;;;18.84;52.61
55460;BME280;41326;45.302;-122.946;2023-02-12T03:03:45;101784.19;;;18.78;52.75
55460;BME280;41326;45.302;-122.946;2023-02-12T03:06:16;101786.28;;;18.77;52.76
55460;BME280;41326;45.302;-122.946;2023-02-12T03:08:47;101788.84;;;18.78;52.56
55460;BME280;41326;45.302;-122.946;2023-02-12T03:11:18;101788.47;;;18.86;52.38
55460;BME280;41326;45.302;-122.946;2023-02-12T03:13:48;101787.28;;;18.90;52.39
55460;BME280;41326;45.302;-122.946;2023-02-12T03:16:17;101781.68;;;18.88;52.35
55460;BME280;41326;45.302;-122.946;2023-02-12T03:18:49;101772.01;;;18.85;52.41
55460;BME280;41326;45.302;-122.946;2023-02-12T03:21:19;101775.42;;;18.85;52.49
55460;BME280;41326;45.302;-122.946;2023-02-12T03:23:50;101778.35;;;18.99;52.24
55460;BME280;41326;45.302;-122.946;2023-02-12T03:26:19;101786.65;;;19.07;52.62
55460;BME280;41326;45.302;-122.946;2023-02-12T03:28:46;101787.55;;;19.05;53.09
55460;BME280;41326;45.302;-122.946;2023-02-12T03:31:25;101789.99;;;19.04;53.46
55460;BME280;41326;45.302;-122.946;2023-02-12T03:33:52;101794.36;;;19.05;53.58
55460;BME280;41326;45.302;-122.946;2023-02-12T03:36:25;101800.91;;;19.02;53.84
55460;BME280;41326;45.302;-122.946;2023-02-12T03:38:51;101801.67;;;18.97;53.98
55460;BME280;41326;45.302;-122.946;2023-02-12T03:41:21;101802.17;;;18.98;53.84
55460;BME280;41326;45.302;-122.946;2023-02-12T03:43:54;101804.21;;;18.99;53.85
55460;BME280;41326;45.302;-122.946;2023-02-12T03:46:24;101808.53;;;18.94;54.37
55460;BME280;41326;45.302;-122.946;2023-02-12T03:48:55;101813.79;;;18.91;54.86
55460;BME280;41326;45.302;-122.946;2023-02-12T03:51:24;101818.58;;;18.89;55.16
55460;BME280;41326;45.302;-122.946;2023-02-12T03:53:50;101821.12;;;18.85;55.42
55460;BME280;41326;45.302;-122.946;2023-02-12T03:56:24;101822.80;;;18.89;55.35
55460;BME280;41326;45.302;-122.946;2023-02-12T03:58:51;101820.89;;;18.83;55.28
55460;BME280;41326;45.302;-122.946;2023-02-12T04:01:20;101823.13;;;18.78;55.59
55460;BME280;41326;45.302;-122.946;2023-02-12T04:03:51;101822.49;;;18.76;55.29
55460;BME280;41326;45.302;-122.946;2023-02-12T04:06:27;101819.87;;;18.73;55.22
55460;BME280;41326;45.302;-122.946;2023-02-12T04:08:52;101820.01;;;18.74;55.19
55460;BME280;41326;45.302;-122.946;2023-02-12T04:11:28;101821.07;;;18.70;55.35
55460;BME280;41326;45.302;-122.946;2023-02-12T04:14:02;101824.51;;;18.69;55.31
55460;BME280;41326;45.302;-122.946;2023-02-12T04:16:28;101825.71;;;18.63;55.46
55460;BME280;41326;45.302;-122.946;2023-02-12T04:18:53;101825.54;;;18.61;55.39
55460;BME280;41326;45.302;-122.946;2023-02-12T04:21:35;101823.04;;;18.62;55.18
55460;BME280;41326;45.302;-122.946;2023-02-12T04:24:01;101826.46;;;18.58;55.17
55460;BME280;41326;45.302;-122.946;2023-02-12T04:26:33;101831.34;;;18.53;55.09
55460;BME280;41326;45.302;-122.946;2023-02-12T04:29:07;101831.07;;;18.56;55.00
55460;BME280;41326;45.302;-122.946;2023-02-12T04:31:29;101833.21;;;18.64;54.66
55460;BME280;41326;45.302;-122.946;2023-02-12T04:34:01;101833.70;;;18.75;54.47
55460;BME280;41326;45.302;-122.946;2023-02-12T04:36:29;101836.21;;;18.74;54.41
55460;BME280;41326;45.302;-122.946;2023-02-12T04:38:58;101836.63;;;18.71;54.50
55460;BME280;41326;45.302;-122.946;2023-02-12T04:41:26;101833.96;;;18.68;54.39
55460;BME280;41326;45.302;-122.946;2023-02-12T04:43:57;101832.55;;;18.66;54.25
55460;BME280;41326;45.302;-122.946;2023-02-12T04:46:27;101828.82;;;18.68;54.18
55460;BME280;41326;45.302;-122.946;2023-02-12T04:48:59;101832.79;;;18.75;53.98
55460;BME280;41326;45.302;-122.946;2023-02-12T04:51:27;101831.64;;;18.79;53.92
55460;BME280;41326;45.302;-122.946;2023-02-12T04:53:57;101833.86;;;18.81;53.83
55460;BME280;41326;45.302;-122.946;2023-02-12T04:56:27;101838.09;;;18.81;53.73
55460;BME280;41326;45.302;-122.946;2023-02-12T04:58:58;101840.15;;;18.79;53.72
55460;BME280;41326;45.302;-122.946;2023-02-12T05:02:39;101843.54;;;18.70;53.94
55460;BME280;41326;45.302;-122.946;2023-02-12T05:05:08;101845.48;;;18.72;53.87
55460;BME280;41326;45.302;-122.946;2023-02-12T05:07:38;101845.63;;;18.70;53.96
55460;BME280;41326;45.302;-122.946;2023-02-12T05:10:09;101848.55;;;18.69;53.96
55460;BME280;41326;45.302;-122.946;2023-02-12T05:12:54;101847.63;;;18.61;54.13
55460;BME280;41326;45.302;-122.946;2023-02-12T05:15:13;101846.30;;;18.57;54.22
55460;BME280;41326;45.302;-122.946;2023-02-12T05:17:45;101847.46;;;18.56;54.26
55460;BME280;41326;45.302;-122.946;2023-02-12T05:20:16;101847.64;;;18.51;54.29
55460;BME280;41326;45.302;-122.946;2023-02-12T05:22:45;101844.37;;;18.49;54.18
55460;BME280;41326;45.302;-122.946;2023-02-12T05:25:14;101847.90;;;18.52;54.19
55460;BME280;41326;45.302;-122.946;2023-02-12T05:27:45;101858.07;;;18.49;54.16
55460;BME280;41326;45.302;-122.946;2023-02-12T05:30:16;101860.25;;;18.46;54.14
55460;BME280;41326;45.302;-122.946;2023-02-12T05:32:46;101857.25;;;18.39;54.29
55460;BME280;41326;45.302;-122.946;2023-02-12T05:35:16;101852.26;;;18.37;54.43
55460;BME280;41326;45.302;-122.946;2023-02-12T05:37:47;101847.69;;;18.35;54.46
55460;BME280;41326;45.302;-122.946;2023-02-12T05:40:17;101853.00;;;18.32;54.44
55460;BME280;41326;45.302;-122.946;2023-02-12T05:42:47;101852.86;;;18.24;54.60
55460;BME280;41326;45.302;-122.946;2023-02-12T05:45:17;101850.87;;;18.25;54.60
55460;BME280;41326;45.302;-122.946;2023-02-12T05:47:47;101848.92;;;18.24;54.70
55460;BME280;41326;45.302;-122.946;2023-02-12T05:50:18;101843.12;;;18.24;54.71
55460;BME280;41326;45.302;-122.946;2023-02-12T05:52:47;101845.35;;;18.18;54.88
55460;BME280;41326;45.302;-122.946;2023-02-12T05:55:18;101845.53;;;18.19;54.82
55460;BME280;41326;45.302;-122.946;2023-02-12T05:57:50;101853.40;;;18.16;54.96
55460;BME280;41326;45.302;-122.946;2023-02-12T06:00:19;101859.76;;;18.10;54.90
55460;BME280;41326;45.302;-122.946;2023-02-12T06:02:49;101863.41;;;18.04;55.02
55460;BME280;41326;45.302;-122.946;2023-02-12T06:05:18;101856.62;;;18.01;55.14
55460;BME280;41326;45.302;-122.946;2023-02-12T06:07:50;101854.19;;;17.99;55.18
55460;BME280;41326;45.302;-122.946;2023-02-12T06:10:20;101869.20;;;18.00;55.05
55460;BME280;41326;45.302;-122.946;2023-02-12T06:12:52;101880.26;;;18.00;55.10
55460;BME280;41326;45.302;-122.946;2023-02-12T06:15:21;101884.73;;;17.96;55.19
55460;BME280;41326;45.302;-122.946;2023-02-12T06:17:52;101886.07;;;17.94;55.07
55460;BME280;41326;45.302;-122.946;2023-02-12T06:20:22;101891.38;;;17.91;54.93
55460;BME280;41326;45.302;-122.946;2023-02-12T06:22:52;101890.31;;;17.91;54.83
55460;BME280;41326;45.302;-122.946;2023-02-12T06:25:22;101886.06;;;17.90;54.82
55460;BME280;41326;45.302;-122.946;2023-02-12T06:27:53;101887.15;;;17.84;54.92
55460;BME280;41326;45.302;-122.946;2023-02-12T06:30:23;101893.89;;;17.80;55.03
55460;BME280;41326;45.302;-122.946;2023-02-12T06:32:55;101892.39;;;17.80;54.95
55460;BME280;41326;45.302;-122.946;2023-02-12T06:35:24;101893.74;;;17.80;54.91
55460;BME280;41326;45.302;-122.946;2023-02-12T06:37:54;101890.49;;;17.79;54.92
55460;BME280;41326;45.302;-122.946;2023-02-12T06:40:25;101894.11;;;17.76;54.76
55460;BME280;41326;45.302;-122.946;2023-02-12T06:42:55;101896.85;;;17.69;54.84
55460;BME280;41326;45.302;-122.946;2023-02-12T06:45:25;101895.51;;;17.69;54.85
55460;BME280;41326;45.302;-122.946;2023-02-12T06:47:56;101892.93;;;17.64;54.95
55460;BME280;41326;45.302;-122.946;2023-02-12T06:50:26;101890.85;;;17.60;54.99
55460;BME280;41326;45.302;-122.946;2023-02-12T06:52:57;101894.32;;;17.57;55.07
55460;BME280;41326;45.302;-122.946;2023-02-12T06:55:26;101900.64;;;17.57;54.98
55460;BME280;41326;45.302;-122.946;2023-02-12T06:57:57;101899.96;;;17.53;55.09
55460;BME280;41326;45.302;-122.946;2023-02-12T07:00:29;101895.37;;;17.49;55.02
55460;BME280;41326;45.302;-122.946;2023-02-12T07:02:58;101897.01;;;17.46;55.07
55460;BME280;41326;45.302;-122.946;2023-02-12T07:05:29;101898.00;;;17.46;55.15
55460;BME280;41326;45.302;-122.946;2023-02-12T07:07:58;101899.02;;;17.46;55.19
55460;BME280;41326;45.302;-122.946;2023-02-12T07:10:28;101896.52;;;17.46;55.16
55460;BME280;41326;45.302;-122.946;2023-02-12T07:12:58;101896.49;;;17.40;55.23
55460;BME280;41326;45.302;-122.946;2023-02-12T07:15:29;101896.84;;;17.38;55.40
55460;BME280;41326;45.302;-122.946;2023-02-12T07:18:00;101898.28;;;17.39;55.35
55460;BME280;41326;45.302;-122.946;2023-02-12T07:20:31;101898.26;;;17.37;55.25
55460;BME280;41326;45.302;-122.946;2023-02-12T07:23:01;101891.13;;;17.34;55.32
55460;BME280;41326;45.302;-122.946;2023-02-12T07:25:31;101888.69;;;17.34;55.38
55460;BME280;41326;45.302;-122.946;2023-02-12T07:28:01;101876.63;;;17.30;55.49
55460;BME280;41326;45.302;-122.946;2023-02-12T07:30:32;101867.59;;;17.30;55.48
55460;BME280;41326;45.302;-122.946;2023-02-12T07:33:03;101864.12;;;17.23;55.57
55460;BME280;41326;45.302;-122.946;2023-02-12T07:35:32;101864.10;;;17.22;55.50
55460;BME280;41326;45.302;-122.946;2023-02-12T07:38:03;101862.43;;;17.20;55.60
55460;BME280;41326;45.302;-122.946;2023-02-12T07:40:44;101857.17;;;17.13;55.73
55460;BME280;41326;45.302;-122.946;2023-02-12T07:43:05;101856.89;;;17.12;55.75
55460;BME280;41326;45.302;-122.946;2023-02-12T07:45:34;101860.59;;;17.11;55.87
55460;BME280;41326;45.302;-122.946;2023-02-12T07:48:06;101866.27;;;17.08;55.95
55460;BME280;41326;45.302;-122.946;2023-02-12T07:50:35;101868.93;;;17.10;55.79
55460;BME280;41326;45.302;-122.946;2023-02-12T07:53:06;101867.36;;;17.08;55.77
55460;BME280;41326;45.302;-122.946;2023-02-12T07:55:35;101868.58;;;17.05;55.84
55460;BME280;41326;45.302;-122.946;2023-02-12T07:58:06;101873.72;;;17.02;55.83
55460;BME280;41326;45.302;-122.946;2023-02-12T08:00:37;101876.73;;;16.98;56.12
55460;BME280;41326;45.302;-122.946;2023-02-12T08:03:08;101881.64;;;17.01;56.68
55460;BME280;41326;45.302;-122.946;2023-02-12T08:05:38;101884.82;;;17.01;56.68
55460;BME280;41326;45.302;-122.946;2023-02-12T08:08:07;101887.14;;;16.99;56.62
55460;BME280;41326;45.302;-122.946;2023-02-12T08:10:39;101897.09;;;16.97;56.58
55460;BME280;41326;45.302;-122.946;2023-02-12T08:13:09;101899.35;;;16.95;56.55
55460;BME280;41326;45.302;-122.946;2023-02-12T08:15:39;101905.80;;;16.91;56.65
55460;BME280;41326;45.302;-122.946;2023-02-12T08:18:09;101903.89;;;16.88;56.60
55460;BME280;41326;45.302;-122.946;2023-02-12T08:20:40;101903.90;;;16.82;56.80
55460;BME280;41326;45.302;-122.946;2023-02-12T08:23:10;101903.53;;;16.79;56.81
55460;BME280;41326;45.302;-122.946;2023-02-12T08:25:41;101907.55;;;16.85;56.72
55460;BME280;41326;45.302;-122.946;2023-02-12T08:28:12;101909.38;;;16.81;56.84
55460;BME280;41326;45.302;-122.946;2023-02-12T08:30:42;101911.78;;;16.82;56.74
55460;BME280;41326;45.302;-122.946;2023-02-12T08:33:12;101917.71;;;16.78;56.78
55460;BME280;41326;45.302;-122.946;2023-02-12T08:35:43;101916.58;;;16.78;56.78
55460;BME280;41326;45.302;-122.946;2023-02-12T08:38:12;101914.54;;;16.74;56.85
55460;BME280;41326;45.302;-122.946;2023-02-12T08:40:43;101916.90;;;16.71;56.94
55460;BME280;41326;45.302;-122.946;2023-02-12T08:43:13;101921.15;;;16.68;56.94
55460;BME280;41326;45.302;-122.946;2023-02-12T08:45:43;101919.81;;;16.67;57.03
55460;BME280;41326;45.302;-122.946;2023-02-12T08:48:14;101922.30;;;16.65;57.00
55460;BME280;41326;45.302;-122.946;2023-02-12T08:50:45;101926.11;;;16.64;56.92
55460;BME280;41326;45.302;-122.946;2023-02-12T08:53:14;101925.71;;;16.63;56.87
55460;BME280;41326;45.302;-122.946;2023-02-12T08:55:47;101928.36;;;16.64;56.77
55460;BME280;41326;45.302;-122.946;2023-02-12T08:58:15;101923.71;;;16.56;56.99
55460;BME280;41326;45.302;-122.946;2023-02-12T09:00:45;101926.19;;;16.57;56.88
55460;BME280;41326;45.302;-122.946;2023-02-12T09:03:15;101922.83;;;16.53;56.97
55460;BME280;41326;45.302;-122.946;2023-02-12T09:05:46;101915.28;;;16.50;57.08
55460;BME280;41326;45.302;-122.946;2023-02-12T09:08:17;101914.30;;;16.51;56.96
55460;BME280;41326;45.302;-122.946;2023-02-12T09:10:47;101910.60;;;16.47;57.14
55460;BME280;41326;45.302;-122.946;2023-02-12T09:13:18;101902.44;;;16.49;57.01
55460;BME280;41326;45.302;-122.946;2023-02-12T09:15:50;101903.98;;;16.48;57.00
55460;BME280;41326;45.302;-122.946;2023-02-12T09:18:18;101900.05;;;16.44;57.06
55460;BME280;41326;45.302;-122.946;2023-02-12T09:20:50;101901.82;;;16.39;57.25
55460;BME280;41326;45.302;-122.946;2023-02-12T09:23:19;101902.44;;;16.36;57.27
55460;BME280;41326;45.302;-122.946;2023-02-12T09:25:50;101901.79;;;16.41;57.14
55460;BME280;41326;45.302;-122.946;2023-02-12T09:28:20;101905.60;;;16.39;57.07
55460;BME280;41326;45.302;-122.946;2023-02-12T09:30:49;101907.90;;;16.35;57.11
55460;BME280;41326;45.302;-122.946;2023-02-12T09:33:20;101906.91;;;16.36;57.00
55460;BME280;41326;45.302;-122.946;2023-02-12T09:35:51;101900.85;;;16.34;57.10
55460;BME280;41326;45.302;-122.946;2023-02-12T09:38:21;101903.16;;;16.30;57.13
55460;BME280;41326;45.302;-122.946;2023-02-12T09:43:25;101914.03;;;16.28;57.08
55460;BME280;41326;45.302;-122.946;2023-02-12T09:45:57;101918.65;;;16.24;57.14
55460;BME280;41326;45.302;-122.946;2023-02-12T09:48:36;101924.78;;;16.20;57.22
55460;BME280;41326;45.302;-122.946;2023-02-12T09:50:55;101927.55;;;16.20;57.14
55460;BME280;41326;45.302;-122.946;2023-02-12T09:53:25;101929.91;;;16.19;57.11
55460;BME280;41326;45.302;-122.946;2023-02-12T09:55:52;101924.67;;;16.19;57.01
55460;BME280;41326;45.302;-122.946;2023-02-12T09:58:29;101927.34;;;16.21;56.86
55460;BME280;41326;45.302;-122.946;2023-02-12T10:00:53;101935.91;;;16.16;56.87
55460;BME280;41326;45.302;-122.946;2023-02-12T10:03:24;101939.48;;;16.15;56.90
55460;BME280;41326;45.302;-122.946;2023-02-12T10:05:56;101942.31;;;16.17;56.79
55460;BME280;41326;45.302;-122.946;2023-02-12T10:08:33;101946.45;;;16.15;56.89
55460;BME280;41326;45.302;-122.946;2023-02-12T10:11:00;101947.19;;;16.10;57.08
55460;BME280;41326;45.302;-122.946;2023-02-12T10:13:35;101946.15;;;16.09;57.21
55460;BME280;41326;45.302;-122.946;2023-02-12T10:16:00;101949.65;;;16.11;57.15
55460;BME280;41326;45.302;-122.946;2023-02-12T10:18:38;101955.30;;;16.02;57.55
55460;BME280;41326;45.302;-122.946;2023-02-12T10:21:06;101960.20;;;15.99;57.45
55460;BME280;41326;45.302;-122.946;2023-02-12T10:25:59;101954.77;;;15.97;57.58
55460;BME280;41326;45.302;-122.946;2023-02-12T10:28:30;101958.08;;;15.97;57.52
55460;BME280;41326;45.302;-122.946;2023-02-12T10:31:01;101968.78;;;15.97;57.55
55460;BME280;41326;45.302;-122.946;2023-02-12T10:33:33;101973.67;;;15.93;57.65
55460;BME280;41326;45.302;-122.946;2023-02-12T10:36:02;101976.42;;;15.92;57.69
55460;BME280;41326;45.302;-122.946;2023-02-12T10:38:34;101975.17;;;15.91;57.58
55460;BME280;41326;45.302;-122.946;2023-02-12T10:40:58;101976.65;;;15.84;57.76
55460;BME280;41326;45.302;-122.946;2023-02-12T10:43:30;101970.67;;;15.84;57.82
55460;BME280;41326;45.302;-122.946;2023-02-12T10:46:00;101966.33;;;15.88;57.64
55460;BME280;41326;45.302;-122.946;2023-02-12T10:48:35;101962.72;;;15.83;57.69
55460;BME280;41326;45.302;-122.946;2023-02-12T10:51:13;101960.52;;;15.85;57.55
55460;BME280;41326;45.302;-122.946;2023-02-12T10:53:35;101956.92;;;15.80;57.74
55460;BME280;41326;45.302;-122.946;2023-02-12T10:56:11;101958.48;;;15.80;57.72
55460;BME280;41326;45.302;-122.946;2023-02-12T10:58:31;101955.03;;;15.77;57.86
55460;BME280;41326;45.302;-122.946;2023-02-12T11:01:03;101955.58;;;15.78;57.75
55460;BME280;41326;45.302;-122.946;2023-02-12T11:03:35;101953.24;;;15.77;57.85
55460;BME280;41326;45.302;-122.946;2023-02-12T11:08:38;101960.57;;;15.73;57.95
55460;BME280;41326;45.302;-122.946;2023-02-12T11:11:09;101963.47;;;15.70;57.95
55460;BME280;41326;45.302;-122.946;2023-02-12T11:13:34;101963.88;;;15.69;57.99
55460;BME280;41326;45.302;-122.946;2023-02-12T11:16:04;101964.59;;;15.68;58.02
55460;BME280;41326;45.302;-122.946;2023-02-12T11:18:35;101971.63;;;15.65;57.98
55460;BME280;41326;45.302;-122.946;2023-02-12T11:21:07;101980.72;;;15.64;57.97
55460;BME280;41326;45.302;-122.946;2023-02-12T11:23:36;101983.34;;;15.60;58.04
55460;BME280;41326;45.302;-122.946;2023-02-12T11:26:06;101984.29;;;15.62;57.97
55460;BME280;41326;45.302;-122.946;2023-02-12T11:28:36;101976.33;;;15.64;58.00
55460;BME280;41326;45.302;-122.946;2023-02-12T11:33:38;101960.36;;;15.54;58.04
55460;BME280;41326;45.302;-122.946;2023-02-12T11:36:12;101948.06;;;15.50;58.13
55460;BME280;41326;45.302;-122.946;2023-02-12T11:38:38;101944.47;;;15.49;58.00
55460;BME280;41326;45.302;-122.946;2023-02-12T11:43:38;101953.55;;;15.47;57.99
55460;BME280;41326;45.302;-122.946;2023-02-12T11:46:07;101944.83;;;15.45;58.09
55460;BME280;41326;45.302;-122.946;2023-02-12T11:48:38;101942.38;;;15.44;58.07
55460;BME280;41326;45.302;-122.946;2023-02-12T11:51:09;101949.09;;;15.45;57.95
55460;BME280;41326;45.302;-122.946;2023-02-12T11:53:41;101941.94;;;15.44;57.96
55460;BME280;41326;45.302;-122.946;2023-02-12T11:56:11;101938.09;;;15.43;57.96
55460;BME280;41326;45.302;-122.946;2023-02-12T11:58:39;101937.81;;;15.40;57.94
55460;BME280;41326;45.302;-122.946;2023-02-12T12:01:14;101935.59;;;15.40;57.91
55460;BME280;41326;45.302;-122.946;2023-02-12T12:03:45;101939.55;;;15.36;58.00
55460;BME280;41326;45.302;-122.946;2023-02-12T12:06:17;101937.62;;;15.37;57.88
55460;BME280;41326;45.302;-122.946;2023-02-12T12:08:46;101934.00;;;15.36;57.83
55460;BME280;41326;45.302;-122.946;2023-02-12T12:11:13;101934.64;;;15.31;58.00
55460;BME280;41326;45.302;-122.946;2023-02-12T12:13:46;101936.24;;;15.32;57.94
55460;BME280;41326;45.302;-122.946;2023-02-12T12:16:15;101934.36;;;15.28;58.08
55460;BME280;41326;45.302;-122.946;2023-02-12T12:18:48;101929.99;;;15.25;57.99
55460;BME280;41326;45.302;-122.946;2023-02-12T12:21:18;101928.67;;;15.19;58.17
55460;BME280;41326;45.302;-122.946;2023-02-12T12:23:46;101929.79;;;15.19;58.17
55460;BME280;41326;45.302;-122.946;2023-02-12T12:26:19;101926.94;;;15.21;57.97
55460;BME280;41326;45.302;-122.946;2023-02-12T12:28:46;101921.26;;;15.17;58.09
55460;BME280;41326;45.302;-122.946;2023-02-12T12:31:16;101920.90;;;15.15;58.06
55460;BME280;41326;45.302;-122.946;2023-02-12T12:33:46;101919.68;;;15.18;57.98
55460;BME280;41326;45.302;-122.946;2023-02-12T12:38:51;101910.15;;;15.11;57.95
55460;BME280;41326;45.302;-122.946;2023-02-12T12:41:22;101915.20;;;15.10;58.02
55460;BME280;41326;45.302;-122.946;2023-02-12T12:43:57;101922.89;;;15.08;58.14
55460;BME280;41326;45.302;-122.946;2023-02-12T12:48:56;101922.13;;;15.06;58.12
55460;BME280;41326;45.302;-122.946;2023-02-12T12:51:28;101931.73;;;15.06;57.98
55460;BME280;41326;45.302;-122.946;2023-02-12T12:53:56;101936.44;;;15.06;57.96
55460;BME280;41326;45.302;-122.946;2023-02-12T12:56:31;101925.10;;;15.02;57.96
55460;BME280;41326;45.302;-122.946;2023-02-12T12:59:01;101921.81;;;15.04;57.80